Rush City, Minnesota
Current Conditions -  °F | °C
As of 10:55 AM on Thursday 23 Oct 2014 (Local Time) from KROS Reporting Station
Overcast Overcast  
Wind Chill: 52°   Ceiling: 100
Heat Index: 52°   Visibility: 7mi
Dew Point: 51°   Wind: 0mph
Humidity: 97%   Direction: NA
Pressure: 30"   Gusts: NA
Location:  45.69°N, 92.97°W
Report Text: KROS 231555Z AUTO 00000KT 7SM OVC001 11/11 A3000 RMK AO2 T01120107
Loading
Personal Weather Stations






























Interactive Weather Map
Tropical Storm Tracking
New forecast layout! Learn more

10-Day Weather Forecast

Advertisements
Track Severe Weather on mobile